Time;durP1;ratioP1;P1;durP2;ratioP2;P2;SDS_P1;SDS_P2;PMS_P1;PMS_P2;Temp;Humidity;BMP_temperature;BMP_pressure;BME280_temperature;BME280_humidity;BME280_pressure;Samples;Min_cycle;Max_cycle;Signal;HPM_P1;HPM_P2
2022/01/13 00:01:04;;;;;;;68.50;32.50;;;;;;;-3.22;64.10;100611.98;105993;1274;107459;-70
2022/01/13 00:03:32;;;;;;;65.20;32.00;;;;;;;-3.23;64.34;100611.63;106055;1274;97928;-70
2022/01/13 00:06:03;;;;;;;71.80;34.10;;;;;;;-3.20;64.20;100616.51;106144;1274;97962;-71
2022/01/13 00:08:31;;;;;;;65.70;34.70;;;;;;;-3.16;64.53;100614.80;105990;1274;111339;-72
2022/01/13 00:10:59;;;;;;;70.40;35.70;;;;;;;-3.12;64.16;100609.80;106136;1274;97970;-70
2022/01/13 00:13:32;;;;;;;67.50;32.00;;;;;;;-3.10;64.29;100603.75;106134;1274;107855;-71
2022/01/13 00:18:51;;;;;;;63.20;33.30;;;;;;;-3.03;64.47;100603.45;106088;1274;97858;-71
2022/01/13 00:23:53;;;;;;;68.40;32.60;;;;;;;-2.98;64.42;100605.23;106168;1274;97921;-69
2022/01/13 00:26:26;;;;;;;64.60;30.00;;;;;;;-2.93;64.30;100599.02;106123;1273;106487;-72
2022/01/13 00:29:02;;;;;;;68.80;32.90;;;;;;;-2.92;64.22;100590.17;106132;1274;95288;-71
2022/01/13 00:31:34;;;;;;;63.20;33.30;;;;;;;-2.93;64.41;100588.27;106051;1274;97883;-71
2022/01/13 00:34:10;;;;;;;65.70;32.30;;;;;;;-2.93;64.26;100584.43;106020;1274;109702;-71
2022/01/13 00:36:41;;;;;;;59.90;30.10;;;;;;;-2.95;64.42;100584.08;105935;1274;98463;-70
2022/01/13 00:39:14;;;;;;;65.90;31.70;;;;;;;-2.95;64.17;100584.77;106029;1274;107365;-70
2022/01/13 00:41:42;;;;;;;59.30;28.90;;;;;;;-2.94;64.25;100595.71;106043;1274;97960;-70
2022/01/13 00:44:10;;;;;;;58.70;29.70;;;;;;;-2.94;64.20;100600.05;106071;1272;97873;-69
2022/01/13 00:46:46;;;;;;;57.50;27.70;;;;;;;-2.92;64.20;100601.10;106009;1274;111317;-71
2022/01/13 00:49:15;;;;;;;62.30;28.20;;;;;;;-2.89;64.34;100588.63;105955;1274;97797;-69
2022/01/13 00:51:45;;;;;;;55.80;27.60;;;;;;;-2.87;64.48;100595.23;106104;1274;107660;-69
2022/01/13 00:54:13;;;;;;;57.20;24.30;;;;;;;-2.87;64.29;100594.38;106068;1274;97845;-70
2022/01/13 00:56:42;;;;;;;57.70;26.30;;;;;;;-2.85;64.26;100592.47;106144;1274;97883;-68
2022/01/13 00:59:15;;;;;;;52.30;24.60;;;;;;;-2.84;64.29;100593.52;106011;1274;111378;-72
2022/01/13 01:01:50;;;;;;;55.80;24.60;;;;;;;-2.80;64.66;100594.92;106053;1274;97858;-70
2022/01/13 01:04:19;;;;;;;55.40;24.10;;;;;;;-2.77;64.61;100592.54;106065;1274;106523;-71
2022/01/13 01:06:48;;;;;;;50.80;22.60;;;;;;;-2.73;64.56;100591.33;105855;1274;97905;-70
2022/01/13 01:09:30;;;;;;;49.10;23.10;;;;;;;-2.71;64.43;100588.75;106082;1274;98403;-70
2022/01/13 01:11:58;;;;;;;46.80;21.50;;;;;;;-2.66;64.57;100597.11;106061;1274;111444;-71
2022/01/13 01:14:29;;;;;;;45.70;20.90;;;;;;;-2.61;64.81;100601.47;106007;1273;97963;-70
2022/01/13 01:17:00;;;;;;;53.30;24.80;;;;;;;-2.60;64.60;100593.33;106093;1273;107662;-71
2022/01/13 01:19:29;;;;;;;45.30;20.80;;;;;;;-2.56;64.83;100599.07;106124;1274;97958;-70
2022/01/13 01:22:18;;;;;;;49.80;22.10;;;;;;;-2.53;64.71;100599.27;106218;1274;96855;-71
2022/01/13 01:27:29;;;;;;;44.50;21.10;;;;;;;-2.48;64.78;100597.73;105999;1274;97925;-71
2022/01/13 01:30:08;;;;;;;46.90;20.70;;;;;;;-2.45;64.89;100604.88;106078;1274;107605;-72
2022/01/13 01:32:38;;;;;;;42.50;18.90;;;;;;;-2.42;64.69;100600.20;106123;1274;97899;-72
2022/01/13 01:35:14;;;;;;;45.30;19.10;;;;;;;-2.40;64.70;100596.55;106167;1274;95304;-72
2022/01/13 01:37:47;;;;;;;47.20;20.10;;;;;;;-2.37;64.53;100593.61;106173;1274;111832;-70
2022/01/13 01:40:20;;;;;;;43.80;19.20;;;;;;;-2.35;64.62;100578.16;106190;1274;97609;-71
2022/01/13 01:42:52;;;;;;;43.50;20.60;;;;;;;-2.34;64.78;100567.92;106224;1273;107818;-70
2022/01/13 01:45:20;;;;;;;46.00;21.80;;;;;;;-2.32;64.81;100557.67;106208;1274;95229;-70
2022/01/13 01:47:52;;;;;;;48.60;21.50;;;;;;;-2.30;64.68;100557.69;106108;1274;97894;-71
2022/01/13 01:50:22;;;;;;;48.90;20.90;;;;;;;-2.28;64.57;100557.52;106156;1273;111207;-71
2022/01/13 01:52:54;;;;;;;47.20;23.20;;;;;;;-2.26;64.71;100547.98;106070;1274;95189;-71
2022/01/13 01:55:22;;;;;;;47.20;21.90;;;;;;;-2.23;64.90;100546.58;106095;1274;107695;-72
2022/01/13 01:57:53;;;;;;;45.70;21.90;;;;;;;-2.20;65.01;100533.73;106068;1274;97877;-70
2022/01/13 02:00:26;;;;;;;45.20;20.60;;;;;;;-2.19;64.58;100524.52;106108;1274;97998;-70
2022/01/13 02:02:55;;;;;;;49.60;24.80;;;;;;;-2.18;64.73;100526.27;106121;1274;111452;-71
2022/01/13 02:05:25;;;;;;;42.70;19.70;;;;;;;-2.16;64.81;100525.73;106018;1272;97967;-72
2022/01/13 02:07:53;;;;;;;45.80;21.80;;;;;;;-2.14;64.93;100525.59;106142;1274;108495;-71
2022/01/13 02:10:21;;;;;;;47.10;22.30;;;;;;;-2.11;64.59;100525.60;106349;1274;97872;-70
2022/01/13 02:13:01;;;;;;;47.80;20.60;;;;;;;-2.09;64.57;100524.20;106102;1274;97956;-71
2022/01/13 02:15:46;;;;;;;47.20;23.40;;;;;;;-2.06;64.77;100534.13;106061;1274;111102;-71
2022/01/13 02:18:18;;;;;;;53.70;22.60;;;;;;;-2.04;64.68;100531.01;106089;1274;97931;-72
2022/01/13 02:20:52;;;;;;;45.20;21.60;;;;;;;-2.01;64.90;100532.04;105952;1274;107761;-69
2022/01/13 02:23:31;;;;;;;48.70;24.20;;;;;;;-1.99;65.15;100535.70;106086;1273;98515;-70
2022/01/13 02:26:03;;;;;;;43.70;21.00;;;;;;;-1.98;65.05;100531.71;106080;1274;97923;-69
2022/01/13 02:28:36;;;;;;;50.30;23.40;;;;;;;-1.96;64.92;100536.41;106147;1273;111315;-71
2022/01/13 02:31:04;;;;;;;45.90;22.50;;;;;;;-1.95;64.95;100537.45;106117;1274;97940;-70
2022/01/13 02:33:34;;;;;;;51.50;23.90;;;;;;;-1.92;64.75;100536.59;106140;1274;107809;-71
2022/01/13 02:36:08;;;;;;;52.80;23.00;;;;;;;-1.88;65.00;100527.73;106115;1274;97905;-70
2022/01/13 02:38:36;;;;;;;54.40;26.40;;;;;;;-1.89;65.18;100528.25;106141;1274;97912;-70
2022/01/13 02:41:04;;;;;;;49.30;22.60;;;;;;;-1.88;65.14;100524.27;106074;1274;111439;-70
2022/01/13 02:43:34;;;;;;;51.10;25.30;;;;;;;-1.86;65.24;100511.23;106156;1274;97876;-71
2022/01/13 02:49:18;;;;;;;54.70;27.10;;;;;;;-1.85;65.45;100493.31;106129;1273;96197;-70
2022/01/13 02:51:53;;;;;;;49.50;23.80;;;;;;;-1.86;65.01;100473.14;106085;1274;95239;-68
2022/01/13 02:54:22;;;;;;;55.10;27.10;;;;;;;-1.84;65.43;100466.88;106152;1274;111398;-69
2022/01/13 02:56:50;;;;;;;49.70;25.60;;;;;;;-1.83;65.31;100474.35;106069;1274;97954;-70
2022/01/13 02:59:18;;;;;;;58.60;27.40;;;;;;;-1.82;65.10;100484.08;106083;1272;107872;-70
2022/01/13 03:01:45;;;;;;;56.40;27.40;;;;;;;-1.81;65.28;100500.08;106199;1274;97977;-70
2022/01/13 03:04:20;;;;;;;51.10;24.40;;;;;;;-1.79;65.38;100525.14;106107;1273;97883;-70
2022/01/13 03:06:49;;;;;;;59.50;29.40;;;;;;;-1.78;65.74;100534.01;106108;1274;111326;-72
2022/01/13 03:09:21;;;;;;;64.00;30.40;;;;;;;-1.81;65.44;100538.00;106123;1274;95345;-72
2022/01/13 03:11:53;;;;;;;63.50;30.00;;;;;;;-1.81;65.54;100545.30;106061;1274;105979;-72
2022/01/13 03:14:21;;;;;;;58.20;28.00;;;;;;;-1.80;65.63;100547.56;106131;1273;97924;-73
2022/01/13 03:16:49;;;;;;;56.80;26.20;;;;;;;-1.81;66.02;100553.48;105988;1274;96519;-72
2022/01/13 03:19:17;;;;;;;56.00;27.00;;;;;;;-1.81;65.72;100555.91;106712;1274;111957;-72
2022/01/13 03:21:44;;;;;;;58.00;28.00;;;;;;;-1.80;65.74;100543.91;107842;1272;95995;-73
2022/01/13 03:24:12;;;;;;;60.10;28.50;;;;;;;-1.78;66.02;100533.48;107741;1274;107653;-72
2022/01/13 03:26:42;;;;;;;60.80;27.10;;;;;;;-1.76;66.09;100519.05;106853;1274;95554;-70
2022/01/13 03:31:44;;;;;;;62.40;31.10;;;;;;;-1.75;66.42;100525.31;105341;1274;1075252;-72
2022/01/13 03:34:17;;;;;;;54.90;26.30;;;;;;;-1.76;65.95;100522.54;106173;1274;97845;-72
2022/01/13 03:36:49;;;;;;;53.90;25.30;;;;;;;-1.76;65.86;100528.10;106158;1273;105626;-71
2022/01/13 03:39:17;;;;;;;58.70;26.00;;;;;;;-1.75;66.52;100534.00;106158;1274;97872;-71
2022/01/13 03:41:45;;;;;;;57.80;30.70;;;;;;;-1.77;66.98;100541.83;106220;1274;97969;-72
2022/01/13 03:44:27;;;;;;;55.20;27.00;;;;;;;-1.79;66.27;100540.27;106108;1274;111363;-72
2022/01/13 03:47:02;;;;;;;57.70;27.80;;;;;;;-1.77;66.38;100541.48;106142;1274;97934;-74
2022/01/13 03:49:35;;;;;;;59.20;29.90;;;;;;;-1.75;66.18;100546.35;106111;1274;107776;-74
2022/01/13 03:52:04;;;;;;;55.30;24.40;;;;;;;-1.75;66.08;100549.31;106227;1274;97960;-73
2022/01/13 03:54:40;;;;;;;59.50;27.80;;;;;;;-1.74;66.44;100542.88;106240;1273;97983;-71
2022/01/13 03:58:13;;;;;;;58.40;27.90;;;;;;;-1.74;66.78;100532.27;106251;1273;111397;-71
2022/01/13 04:01:18;;;;;;;61.20;28.20;;;;;;;-1.74;66.79;100517.48;106071;1274;97891;-73
2022/01/13 04:03:51;;;;;;;54.30;26.70;;;;;;;-1.73;66.36;100512.09;106113;1274;107855;-71
2022/01/13 04:06:21;;;;;;;61.40;25.90;;;;;;;-1.72;66.52;100507.75;106138;1274;98091;-73
2022/01/13 04:08:53;;;;;;;49.30;23.30;;;;;;;-1.69;66.54;100519.58;106170;1274;95949;-71
2022/01/13 04:11:32;;;;;;;53.20;27.60;;;;;;;-1.69;66.75;100510.89;106104;1274;112185;-72
2022/01/13 04:14:09;;;;;;;59.60;27.20;;;;;;;-1.69;66.60;100502.20;106110;1273;96535;-71
2022/01/13 04:16:37;;;;;;;50.30;23.00;;;;;;;-1.69;66.63;100502.36;106100;1274;107661;-73
2022/01/13 04:19:09;;;;;;;51.30;24.30;;;;;;;-1.69;66.84;100499.06;106101;1274;97988;-73
2022/01/13 04:21:43;;;;;;;51.80;24.10;;;;;;;-1.69;66.66;100500.63;106169;1274;97852;-73
2022/01/13 04:24:15;;;;;;;;;;;;;;;-1.66;66.79;100491.23;106074;1274;111433;-72
2022/01/13 04:26:44;;;;;;;48.80;23.40;;;;;;;-1.66;67.54;100494.55;106149;1273;95204;-73
2022/01/13 04:29:27;;;;;;;57.40;26.50;;;;;;;-1.67;66.99;100493.16;106020;1274;107662;-71
2022/01/13 04:32:04;;;;;;;52.10;24.20;;;;;;;-1.67;67.00;100488.29;106102;1274;95625;-72
2022/01/13 04:34:36;;;;;;;51.80;23.70;;;;;;;-1.66;67.00;100479.93;106152;1274;97873;-72
2022/01/13 04:37:04;;;;;;;52.90;23.70;;;;;;;-1.66;67.96;100475.41;106119;1274;111169;-72
2022/01/13 04:39:32;;;;;;;48.70;23.10;;;;;;;-1.67;67.58;100480.27;106133;1273;95381;-71
2022/01/13 04:42:04;;;;;;;50.40;22.00;;;;;;;-1.67;67.60;100474.71;106101;1274;106611;-72
2022/01/13 04:44:36;;;;;;;49.70;22.80;;;;;;;-1.67;68.29;100470.36;106052;1274;98408;-70
2022/01/13 04:47:07;;;;;;;45.70;20.00;;;;;;;-1.68;67.71;100464.10;106132;1274;97888;-70
2022/01/13 04:49:41;;;;;;;43.10;17.50;;;;;;;-1.66;68.08;100459.58;106121;1274;111085;-73
2022/01/13 04:52:14;;;;;;;47.80;21.50;;;;;;;-1.67;68.38;100452.45;106159;1274;95244;-73
2022/01/13 04:54:44;;;;;;;45.40;19.10;;;;;;;-1.68;68.49;100447.40;106130;1274;107814;-72
2022/01/13 04:57:17;;;;;;;46.30;20.50;;;;;;;-1.69;68.94;100440.97;106124;1274;97827;-73
2022/01/13 04:59:48;;;;;;;46.60;20.70;;;;;;;-1.69;68.49;100446.71;106136;1274;97854;-71
2022/01/13 05:02:21;;;;;;;44.30;17.60;;;;;;;-1.69;68.99;100443.75;106113;1274;111436;-72
2022/01/13 05:04:49;;;;;;;46.40;18.40;;;;;;;-1.66;68.61;100439.92;106124;1274;96506;-72
2022/01/13 05:07:17;;;;;;;47.70;20.80;;;;;;;-1.66;68.88;100436.79;106122;1273;107698;-73
2022/01/13 05:09:49;;;;;;;53.40;22.10;;;;;;;-1.64;69.00;100448.79;106110;1274;97963;-72
2022/01/13 05:12:17;;;;;;;51.60;22.90;;;;;;;-1.64;68.50;100452.10;106022;1274;97948;-72
2022/01/13 05:14:53;;;;;;;40.20;17.90;;;;;;;-1.63;68.87;100457.65;106123;1273;111831;-72
2022/01/13 05:18:02;;;;;;;52.60;22.90;;;;;;;-1.60;69.85;100451.39;106110;1273;97752;-71
2022/01/13 05:20:21;;;;;;;51.30;22.70;;;;;;;-1.61;70.20;100435.38;106112;1274;107651;-72
2022/01/13 05:22:53;;;;;;;47.00;19.80;;;;;;;-1.60;69.36;100432.77;106132;1274;95365;-72
2022/01/13 05:25:23;;;;;;;46.30;20.30;;;;;;;-1.60;69.46;100428.77;106158;1274;97928;-73
2022/01/13 05:27:51;;;;;;;49.90;21.50;;;;;;;-1.58;69.52;100436.95;106203;1274;110073;-73
2022/01/13 05:30:19;;;;;;;43.90;18.90;;;;;;;-1.56;69.92;100436.42;106149;1274;97768;-71
2022/01/13 05:32:47;;;;;;;45.60;19.20;;;;;;;-1.55;69.03;100431.20;106123;1274;107762;-72
2022/01/13 05:35:18;;;;;;;49.60;22.10;;;;;;;-1.54;69.90;100437.48;106200;1274;95359;-71
2022/01/13 05:37:46;;;;;;;46.20;20.60;;;;;;;-1.52;69.57;100430.34;106246;1274;95260;-71
2022/01/13 05:40:26;;;;;;;41.00;16.30;;;;;;;-1.51;70.19;100424.25;106254;1273;111128;-72
2022/01/13 05:42:54;;;;;;;45.60;21.00;;;;;;;-1.49;69.55;100431.03;106290;1274;97869;-72
2022/01/13 05:45:29;;;;;;;47.10;21.70;;;;;;;-1.47;70.09;100428.95;106256;1274;105411;-72
2022/01/13 05:48:06;;;;;;;47.00;20.20;;;;;;;-1.43;69.74;100428.77;106188;1274;97956;-72
2022/01/13 05:50:38;;;;;;;50.60;21.50;;;;;;;-1.42;69.98;100435.18;106228;1274;97945;-73
2022/01/13 05:53:10;;;;;;;49.10;20.50;;;;;;;-1.40;69.78;100435.02;106111;1274;111304;-73
2022/01/13 05:55:39;;;;;;;46.00;18.10;;;;;;;-1.41;70.34;100439.71;106218;1274;95264;-72
2022/01/13 05:58:11;;;;;;;47.90;19.60;;;;;;;-1.40;70.04;100440.23;106261;1273;106692;-72
2022/01/13 06:00:39;;;;;;;49.30;20.70;;;;;;;-1.39;69.47;100438.49;106281;1274;96557;-72
2022/01/13 06:03:11;;;;;;;51.50;23.30;;;;;;;-1.37;70.43;100432.92;106250;1274;95294;-71
2022/01/13 06:05:39;;;;;;;49.90;21.90;;;;;;;-1.37;69.88;100435.88;106100;1274;111491;-72
2022/01/13 06:08:10;;;;;;;50.80;22.60;;;;;;;-1.36;69.68;100432.92;106265;1274;97794;-71
2022/01/13 06:10:42;;;;;;;47.50;20.70;;;;;;;-1.33;70.06;100433.79;106242;1274;107736;-71
2022/01/13 06:13:14;;;;;;;53.90;22.80;;;;;;;-1.32;70.02;100433.09;106225;1273;97749;-72
2022/01/13 06:15:46;;;;;;;48.30;20.50;;;;;;;-1.31;69.90;100426.64;106255;1273;97989;-72
2022/01/13 06:18:24;;;;;;;52.50;23.20;;;;;;;-1.29;70.36;100417.42;106297;1274;111305;-72
2022/01/13 06:20:56;;;;;;;48.50;20.70;;;;;;;-1.28;70.16;100414.29;106199;1274;97993;-73
2022/01/13 06:23:24;;;;;;;51.30;22.10;;;;;;;-1.27;70.31;100422.13;106222;1274;107608;-74
2022/01/13 06:25:52;;;;;;;45.80;20.50;;;;;;;-1.27;70.68;100417.08;106261;1272;97879;-73
2022/01/13 06:28:20;;;;;;;54.00;24.60;;;;;;;-1.26;70.98;100417.59;106311;1274;97960;-71
2022/01/13 06:30:47;;;;;;;52.20;23.40;;;;;;;-1.25;70.29;100424.55;106194;1274;111375;-72
2022/01/13 06:33:15;;;;;;;54.40;24.90;;;;;;;-1.22;69.90;100426.27;106258;1274;95187;-73
2022/01/13 06:35:43;;;;;;;59.10;22.20;;;;;;;-1.19;69.94;100435.67;106257;1274;108586;-71
2022/01/13 06:38:15;;;;;;;51.10;23.30;;;;;;;-1.16;70.28;100440.55;106128;1271;97964;-72
2022/01/13 06:40:44;;;;;;;49.90;23.40;;;;;;;-1.15;70.51;100433.58;106268;1274;97846;-72
2022/01/13 06:43:12;;;;;;;52.00;23.60;;;;;;;-1.14;70.57;100431.83;106270;1274;111482;-72
2022/01/13 06:45:40;;;;;;;46.20;22.00;;;;;;;-1.12;70.24;100430.26;106145;1274;98013;-71
2022/01/13 06:48:08;;;;;;;58.80;25.70;;;;;;;-1.10;70.31;100428.86;106142;1272;107776;-72
2022/01/13 06:50:37;;;;;;;49.60;22.10;;;;;;;-1.09;70.51;100429.90;106202;1274;97982;-73
2022/01/13 06:53:09;;;;;;;51.60;23.40;;;;;;;-1.08;71.01;100425.20;106160;1273;97941;-73
2022/01/13 06:55:37;;;;;;;48.10;22.30;;;;;;;-1.06;70.46;100430.92;106153;1273;110465;-72
2022/01/13 06:58:04;;;;;;;52.80;22.10;;;;;;;-1.04;70.60;100427.45;106212;1273;95182;-72
2022/01/13 07:00:33;;;;;;;53.60;24.40;;;;;;;-1.01;70.81;100423.78;106207;1274;107743;-71
2022/01/13 07:03:05;;;;;;;42.80;18.40;;;;;;;-1.00;70.51;100426.38;106170;1273;97941;-72
2022/01/13 07:05:37;;;;;;;57.10;26.70;;;;;;;-0.98;70.73;100430.55;106225;1273;97941;-72
2022/01/13 07:08:12;;;;;;;54.50;25.30;;;;;;;-0.96;70.51;100441.00;106194;1274;111353;-73
2022/01/13 07:10:40;;;;;;;51.70;23.30;;;;;;;-0.93;70.67;100449.17;106141;1273;97679;-72
2022/01/13 07:13:08;;;;;;;50.30;24.00;;;;;;;-0.91;70.66;100454.05;106137;1274;107897;-72
2022/01/13 07:15:36;;;;;;;48.50;21.10;;;;;;;-0.88;70.76;100448.98;106183;1274;98390;-73
2022/01/13 07:18:04;;;;;;;52.30;24.40;;;;;;;-0.83;70.74;100459.77;106230;1273;97931;-72
2022/01/13 07:20:31;;;;;;;52.50;22.40;;;;;;;-0.82;70.93;100465.69;106227;1274;111458;-72
2022/01/13 07:22:59;;;;;;;44.90;20.50;;;;;;;-0.79;70.74;100471.59;106202;1274;97798;-71
2022/01/13 07:25:27;;;;;;;43.60;20.60;;;;;;;-0.76;70.54;100473.68;106180;1273;107780;-71
2022/01/13 07:27:55;;;;;;;50.40;23.40;;;;;;;-0.72;70.83;100472.10;106166;1274;97866;-72
2022/01/13 07:30:23;;;;;;;51.50;22.70;;;;;;;-0.70;70.92;100469.48;106093;1274;97920;-72
2022/01/13 07:32:50;;;;;;;44.40;19.40;;;;;;;-0.66;70.79;100468.59;106132;1274;109939;-72
2022/01/13 07:35:18;;;;;;;45.30;19.30;;;;;;;-0.64;71.05;100465.61;106211;1274;95390;-74
2022/01/13 07:37:50;;;;;;;43.40;21.20;;;;;;;-0.61;70.91;100470.48;106256;1274;109990;-71
2022/01/13 07:40:18;;;;;;;42.20;19.80;;;;;;;-0.57;70.84;100478.30;106143;1274;97033;-73
2022/01/13 07:42:50;;;;;;;44.40;22.30;;;;;;;-0.56;71.13;100473.60;106203;1274;97988;-73
2022/01/13 07:45:18;;;;;;;44.30;20.50;;;;;;;-0.54;70.94;100466.27;106151;1274;111245;-74
2022/01/13 07:47:46;;;;;;;50.90;23.80;;;;;;;-0.51;71.04;100463.82;106156;1274;95309;-72
2022/01/13 07:50:19;;;;;;;44.00;20.30;;;;;;;-0.47;71.06;100463.80;106224;1273;108166;-72
2022/01/13 07:52:46;;;;;;;44.10;19.00;;;;;;;-0.45;71.14;100459.44;106144;1274;97882;-71
2022/01/13 07:55:15;;;;;;;46.40;21.10;;;;;;;-0.43;71.06;100449.33;106172;1274;97850;-72
2022/01/13 07:57:42;;;;;;;45.80;19.30;;;;;;;-0.41;71.29;100442.69;106137;1274;111379;-69
2022/01/13 08:00:15;;;;;;;41.70;18.50;;;;;;;-0.40;71.34;100445.28;106128;1274;97964;-72
2022/01/13 08:02:43;;;;;;;46.20;21.50;;;;;;;-0.37;71.11;100447.18;106105;1274;106900;-72
2022/01/13 08:05:20;;;;;;;38.80;17.10;;;;;;;-0.32;71.07;100441.92;106108;1274;97841;-71
2022/01/13 08:07:47;;;;;;;43.90;20.30;;;;;;;-0.27;71.15;100444.35;106192;1274;98730;-74
2022/01/13 08:10:16;;;;;;;42.00;19.20;;;;;;;-0.26;71.26;100445.73;106152;1274;111399;-72
2022/01/13 08:12:44;;;;;;;43.90;21.10;;;;;;;-0.24;71.21;100443.45;106126;1273;95209;-73
2022/01/13 08:15:16;;;;;;;42.10;17.00;;;;;;;-0.21;71.21;100435.93;106051;1274;107673;-73
2022/01/13 08:20:35;;;;;;;40.40;18.20;;;;;;;-0.12;71.07;100425.59;106117;1274;95185;-72
2022/01/13 08:23:03;;;;;;;40.10;18.20;;;;;;;-0.07;71.13;100423.64;106149;1274;111365;-73
2022/01/13 08:25:31;;;;;;;43.70;19.60;;;;;;;-0.01;71.16;100427.27;106151;1274;95262;-73
2022/01/13 08:27:58;;;;;;;44.40;20.30;;;;;;;0.02;71.12;100430.38;106165;1273;107745;-73
2022/01/13 08:30:42;;;;;;;45.90;18.70;;;;;;;0.07;71.18;100426.14;106160;1274;97979;-73
2022/01/13 08:33:14;;;;;;;41.50;19.50;;;;;;;0.10;71.09;100426.64;106152;1274;100036;-71
2022/01/13 08:35:43;;;;;;;38.00;19.00;;;;;;;0.15;71.06;100423.65;106113;1274;111040;-73
2022/01/13 08:38:18;;;;;;;42.10;19.20;;;;;;;0.19;71.12;100418.04;106128;1274;97803;-72
2022/01/13 08:41:00;;;;;;;43.50;21.10;;;;;;;0.23;71.05;100411.70;106109;1274;107405;-73
2022/01/13 08:43:34;;;;;;;46.80;21.20;;;;;;;0.30;71.17;100401.18;106085;1274;96408;-74
2022/01/13 08:46:03;;;;;;;44.70;19.70;;;;;;;0.34;71.27;100396.27;106149;1274;95275;-73
2022/01/13 08:48:39;;;;;;;44.80;22.20;;;;;;;0.37;71.24;100388.21;106106;1274;111487;-73
2022/01/13 08:51:07;;;;;;;46.20;24.30;;;;;;;0.39;71.23;100384.36;106118;1274;97860;-73
2022/01/13 08:53:37;;;;;;;49.80;25.90;;;;;;;0.41;71.20;100386.42;106119;1273;107578;-72
2022/01/13 08:56:09;;;;;;;53.00;28.40;;;;;;;0.44;71.22;100385.53;106098;1274;97897;-70
2022/01/13 08:58:37;;;;;;;45.90;22.30;;;;;;;0.44;71.14;100390.75;106156;1274;98925;-71
2022/01/13 09:01:07;;;;;;;53.30;26.80;;;;;;;0.47;71.25;100385.33;106074;1274;111486;-71
2022/01/13 09:03:38;;;;;;;53.00;27.20;;;;;;;0.47;71.16;100381.48;106137;1274;97867;-73
2022/01/13 09:06:06;;;;;;;52.50;26.30;;;;;;;0.48;71.21;100380.77;106141;1273;107633;-73
2022/01/13 09:08:44;;;;;;;43.90;20.20;;;;;;;0.48;71.23;100382.35;106122;1273;97874;-69
2022/01/13 09:11:16;;;;;;;49.30;22.60;;;;;;;0.47;71.38;100369.61;106142;1274;97886;-71
2022/01/13 09:13:44;;;;;;;45.20;21.60;;;;;;;0.49;71.21;100367.14;106020;1274;111276;-71
2022/01/13 09:16:16;;;;;;;48.70;23.90;;;;;;;0.51;71.38;100364.86;106182;1274;97857;-72
2022/01/13 09:19:07;;;;;;;44.00;22.30;;;;;;;0.52;71.33;100349.48;106125;1274;107726;-72
2022/01/13 09:21:42;;;;;;;46.30;22.30;;;;;;;0.56;71.25;100332.52;106204;1274;97857;-72
2022/01/13 09:24:17;;;;;;;50.00;24.10;;;;;;;0.58;71.25;100324.98;106058;1274;97912;-72
2022/01/13 09:26:49;;;;;;;46.40;21.30;;;;;;;0.61;71.45;100329.67;106128;1272;111454;-72
2022/01/13 09:29:17;;;;;;;52.50;22.70;;;;;;;0.62;71.30;100339.95;106120;1273;95243;-73
2022/01/13 09:31:49;;;;;;;45.80;21.20;;;;;;;0.66;71.34;100343.22;106031;1274;107927;-72
2022/01/13 09:34:17;;;;;;;50.10;23.30;;;;;;;0.68;71.22;100342.85;106115;1274;97816;-72
2022/01/13 09:36:45;;;;;;;48.60;23.20;;;;;;;0.72;71.35;100354.16;106134;1274;95194;-72
2022/01/13 09:39:17;;;;;;;47.30;22.50;;;;;;;0.76;71.44;100361.27;106148;1273;111627;-72
2022/01/13 09:41:50;;;;;;;46.90;22.60;;;;;;;0.79;71.26;100368.23;106111;1274;97837;-72
2022/01/13 09:44:18;;;;;;;40.70;19.30;;;;;;;0.83;71.11;100362.58;106042;1274;107513;-72
2022/01/13 09:46:54;;;;;;;48.40;24.50;;;;;;;0.86;71.29;100363.08;106188;1272;95857;-72
2022/01/13 09:49:22;;;;;;;48.90;23.80;;;;;;;0.88;71.28;100366.70;106152;1273;97856;-72
2022/01/13 09:51:50;;;;;;;50.50;23.40;;;;;;;0.92;71.57;100354.45;106151;1273;111367;-73
2022/01/13 09:54:20;;;;;;;50.30;22.40;;;;;;;0.93;71.34;100350.59;106169;1272;97908;-73
2022/01/13 09:56:48;;;;;;;46.60;23.00;;;;;;;0.93;71.43;100337.15;106114;1274;107722;-72
2022/01/13 09:59:16;;;;;;;41.30;19.80;;;;;;;0.94;71.38;100328.40;106121;1274;98011;-71
2022/01/13 10:01:44;;;;;;;46.90;22.00;;;;;;;0.96;71.58;100326.29;106165;1273;97812;-72
2022/01/13 10:04:18;;;;;;;42.20;20.30;;;;;;;0.95;71.54;100316.34;106128;1272;111399;-73
2022/01/13 10:06:49;;;;;;;45.80;21.50;;;;;;;0.95;71.54;100310.05;106117;1273;97911;-72
2022/01/13 10:09:17;;;;;;;45.60;20.30;;;;;;;0.96;71.57;100299.73;106128;1274;107617;-71
2022/01/13 10:11:54;;;;;;;44.60;22.90;;;;;;;0.95;71.63;100290.98;106010;1274;96985;-72
2022/01/13 10:17:05;;;;;;;46.50;20.70;;;;;;;0.94;71.84;100284.05;106164;1274;111285;-71
2022/01/13 10:19:42;;;;;;;41.10;20.00;;;;;;;0.92;71.77;100276.70;106194;1274;97969;-72
2022/01/13 10:22:11;;;;;;;39.00;19.90;;;;;;;0.94;71.76;100264.64;106168;1273;107737;-73
2022/01/13 10:24:47;;;;;;;41.10;19.90;;;;;;;0.95;71.91;100260.09;106144;1273;97841;-73
2022/01/13 10:27:21;;;;;;;39.80;19.20;;;;;;;0.95;71.92;100259.05;106166;1274;98570;-72
2022/01/13 10:30:01;;;;;;;38.00;18.30;;;;;;;0.97;71.97;100267.92;106095;1274;110431;-71
2022/01/13 10:32:34;;;;;;;36.80;18.00;;;;;;;0.98;72.08;100272.98;106131;1274;95368;-72
2022/01/13 10:35:10;;;;;;;33.20;15.80;;;;;;;0.97;72.08;100270.72;106211;1274;107873;-72
2022/01/13 10:37:47;;;;;;;40.30;17.80;;;;;;;0.97;72.01;100268.96;106144;1273;97972;-71
2022/01/13 10:40:27;;;;;;;38.60;19.30;;;;;;;0.97;72.14;100271.42;106131;1274;98538;-72
2022/01/13 10:45:50;;;;;;;39.00;17.40;;;;;;;1.01;71.93;100263.32;106155;1274;95815;-70
2022/01/13 10:48:32;;;;;;;38.80;18.70;;;;;;;1.02;72.05;100254.56;106081;1274;107786;-66
2022/01/13 10:51:08;;;;;;;41.60;19.30;;;;;;;1.08;72.12;100252.38;106108;1274;96915;-72
2022/01/13 10:53:43;;;;;;;37.40;18.70;;;;;;;1.13;72.20;100254.06;106130;1273;98587;-72
2022/01/13 10:56:18;;;;;;;40.00;19.10;;;;;;;1.16;72.05;100254.89;106108;1274;111328;-72
2022/01/13 10:58:54;;;;;;;38.80;18.80;;;;;;;1.18;72.18;100257.30;106152;1274;97905;-74
2022/01/13 11:01:36;;;;;;;40.90;18.80;;;;;;;1.21;72.06;100251.86;106201;1273;107724;-72
2022/01/13 11:04:14;;;;;;;40.50;19.80;;;;;;;1.23;72.17;100246.77;106227;1273;97968;-69
2022/01/13 11:06:42;;;;;;;37.90;18.40;;;;;;;1.24;72.10;100233.11;106200;1274;95248;-72
2022/01/13 11:09:17;;;;;;;46.00;21.90;;;;;;;1.26;72.15;100217.34;106229;1273;111384;-73
2022/01/13 11:11:57;;;;;;;44.70;21.10;;;;;;;1.27;72.20;100215.58;106246;1274;98003;-71
2022/01/13 11:14:27;;;;;;;38.40;18.40;;;;;;;1.28;72.17;100223.08;106134;1274;107637;-73
2022/01/13 11:16:55;;;;;;;37.60;18.90;;;;;;;1.29;72.17;100217.48;106129;1274;98993;-72
2022/01/13 11:19:25;;;;;;;37.00;18.40;;;;;;;1.31;72.36;100212.02;106170;1274;97977;-71
2022/01/13 11:21:56;;;;;;;39.80;20.90;;;;;;;1.33;72.45;100210.95;106135;1274;111431;-71
2022/01/13 11:24:26;;;;;;;38.00;19.70;;;;;;;1.33;72.43;100208.33;105945;1276;97969;-71
2022/01/13 11:26:57;;;;;;;38.40;18.70;;;;;;;1.32;72.20;100205.02;106121;1274;107875;-71
2022/01/13 11:29:29;;;;;;;37.10;18.70;;;;;;;1.32;72.60;100204.33;106153;1274;97924;-71
2022/01/13 11:32:02;;;;;;;39.00;18.70;;;;;;;1.32;72.07;100203.96;106145;1274;97947;-72
2022/01/13 11:34:31;;;;;;;38.20;17.70;;;;;;;1.34;71.94;100205.15;106130;1273;111451;-72
2022/01/13 11:36:59;;;;;;;39.00;17.90;;;;;;;1.38;72.31;100198.80;106174;1274;96723;-72
2022/01/13 11:39:44;;;;;;;37.40;16.70;;;;;;;1.41;72.11;100191.08;106182;1274;107735;-71
2022/01/13 11:42:18;;;;;;;38.50;17.00;;;;;;;1.44;72.19;100188.37;106096;1274;97802;-71
2022/01/13 11:45:11;;;;;;;37.50;17.90;;;;;;;1.48;72.16;100189.73;106131;1274;95190;-71